createdAt,value
2018-09-10T00:01:59.471Z,101399.87
2018-09-10T00:04:28.860Z,101403.46
2018-09-10T00:06:58.628Z,101405.23
2018-09-10T00:09:28.324Z,101404.48
2018-09-10T00:11:58.186Z,101402.86
2018-09-10T00:14:27.904Z,101410.51
2018-09-10T00:16:57.288Z,101401.30
2018-09-10T00:19:27.076Z,101401.83
2018-09-10T00:21:56.831Z,101398.62
2018-09-10T00:24:26.600Z,101398.69
2018-09-10T00:26:56.437Z,101406.16
2018-09-10T00:29:25.894Z,101404.02
2018-09-10T00:31:55.614Z,101399.52
2018-09-10T00:34:25.437Z,101403.95
2018-09-10T00:36:55.192Z,101407.59
2018-09-10T00:39:24.643Z,101406.83
2018-09-10T00:41:54.048Z,101412.68
2018-09-10T00:44:23.860Z,101414.95
2018-09-10T00:46:53.737Z,101418.05
2018-09-10T00:49:23.506Z,101410.11
2018-09-10T00:51:53.332Z,101412.77
2018-09-10T00:54:23.076Z,101402.91
2018-09-10T00:56:52.917Z,101409.55
2018-09-10T00:59:22.352Z,101408.75
2018-09-10T01:01:52.068Z,101403.89
2018-09-10T01:04:21.488Z,101407.88
2018-09-10T01:06:51.357Z,101411.55
2018-09-10T01:09:21.109Z,101402.72
2018-09-10T01:11:50.877Z,101401.78
2018-09-10T01:14:20.320Z,101401.23
2018-09-10T01:16:50.104Z,101403.94
2018-09-10T01:19:19.843Z,101403.19
2018-09-10T01:21:49.594Z,101401.12
2018-09-10T01:24:19.352Z,101404.74
2018-09-10T01:26:48.773Z,101407.92
2018-09-10T01:29:18.621Z,101406.70
2018-09-10T01:31:48.506Z,101406.70
2018-09-10T01:34:23.300Z,101400.95
2018-09-10T01:36:53.064Z,101395.66
2018-09-10T01:39:22.891Z,101394.34
2018-09-10T01:41:52.264Z,101399.20
2018-09-10T01:44:22.008Z,101390.86
2018-09-10T01:46:51.706Z,101397.50
2018-09-10T01:49:21.424Z,101395.31
2018-09-10T01:51:51.264Z,101390.47
2018-09-10T01:54:20.628Z,101393.58
2018-09-10T01:56:50.385Z,101383.47
2018-09-10T01:59:19.831Z,101381.28
2018-09-10T02:01:49.720Z,101383.05
2018-09-10T02:04:19.641Z,101382.61
2018-09-10T02:06:49.347Z,101381.32
2018-09-10T02:09:19.141Z,101379.56
2018-09-10T02:11:48.883Z,101375.66
2018-09-10T02:14:18.627Z,101376.53
2018-09-10T02:16:48.422Z,101380.52
2018-09-10T02:19:18.143Z,101384.84
2018-09-10T02:21:47.869Z,101387.84
2018-09-10T02:24:17.275Z,101384.73
2018-09-10T02:26:46.755Z,101383.92
2018-09-10T02:29:16.635Z,101381.27
2018-09-10T02:31:46.319Z,101383.98
2018-09-10T02:34:16.092Z,101392.84
2018-09-10T02:36:45.494Z,101400.01
2018-09-10T02:39:15.258Z,101391.64
2018-09-10T02:41:45.100Z,101385.11
2018-09-10T02:44:15.344Z,101393.55
2018-09-10T02:46:44.917Z,101387.42
2018-09-10T02:49:14.426Z,101383.44
2018-09-10T02:51:43.918Z,101382.92
2018-09-10T02:54:13.874Z,101374.09
2018-09-10T02:56:43.359Z,101374.58
2018-09-10T02:59:13.203Z,101369.17
2018-09-10T03:01:43.111Z,101374.03
2018-09-10T03:04:12.935Z,101369.64
2018-09-10T03:06:42.451Z,101370.52
2018-09-10T03:09:11.905Z,101378.56
2018-09-10T03:11:41.808Z,101380.83
2018-09-10T03:14:11.841Z,101375.59
2018-09-10T03:16:41.827Z,101371.53
2018-09-10T03:19:11.252Z,101371.41
2018-09-10T03:21:40.776Z,101374.10
2018-09-10T03:24:10.334Z,101377.17
2018-09-10T03:26:40.195Z,101378.39
2018-09-10T03:29:10.159Z,101386.22
2018-09-10T03:31:40.031Z,101387.15
2018-09-10T03:34:09.923Z,101388.98
2018-09-10T03:36:39.755Z,101388.56
2018-09-10T03:39:11.155Z,101393.51
2018-09-10T03:41:42.741Z,101388.68
2018-09-10T03:44:12.261Z,101388.75
2018-09-10T03:46:42.147Z,101384.25
2018-09-10T03:49:12.123Z,101379.72
2018-09-10T03:51:41.571Z,101372.64
2018-09-10T03:54:11.378Z,101377.95
2018-09-10T03:56:41.181Z,101380.10
2018-09-10T03:59:10.962Z,101372.50
2018-09-10T04:01:40.654Z,101381.72
2018-09-10T04:04:10.442Z,101379.85
2018-09-10T04:06:39.858Z,101376.19
2018-09-10T04:09:10.418Z,101380.92
2018-09-10T04:11:40.389Z,101387.03
2018-09-10T04:14:09.865Z,101379.40
2018-09-10T04:16:39.347Z,101382.84
2018-09-10T04:19:09.230Z,101384.96
2018-09-10T04:21:39.110Z,101385.27
2018-09-10T04:24:09.990Z,101388.70
2018-09-10T04:26:40.265Z,101381.53
2018-09-10T04:29:10.114Z,101380.16
2018-09-10T04:31:39.838Z,101385.00
2018-09-10T04:34:09.267Z,101384.98
2018-09-10T04:36:39.107Z,101393.33
2018-09-10T04:39:10.315Z,101397.72
2018-09-10T04:41:44.302Z,101395.89
2018-09-10T04:44:15.014Z,101393.60
2018-09-10T04:46:45.145Z,101389.07
2018-09-10T04:49:15.359Z,101390.80
2018-09-10T04:51:45.198Z,101382.87
2018-09-10T04:57:11.968Z,101391.83
2018-09-10T04:59:42.556Z,101396.69
2018-09-10T05:02:15.871Z,101406.44
2018-09-10T05:04:45.595Z,101401.95
2018-09-10T05:07:15.424Z,101399.25
2018-09-10T05:09:45.520Z,101403.09
2018-09-10T05:12:15.674Z,101406.91
2018-09-10T05:14:46.204Z,101403.08
2018-09-10T05:17:15.950Z,101399.73
2018-09-10T05:19:45.878Z,101399.81
2018-09-10T05:22:15.470Z,101383.34
2018-09-10T05:24:46.214Z,101408.84
2018-09-10T05:30:19.378Z,101412.79
2018-09-10T05:32:49.106Z,101407.05
2018-09-10T05:35:18.602Z,101409.34
2018-09-10T05:37:48.465Z,101402.70
2018-09-10T05:40:18.972Z,101397.67
2018-09-10T05:42:49.142Z,101388.33
2018-09-10T05:45:18.930Z,101391.38
2018-09-10T05:47:54.440Z,101392.03
2018-09-10T05:50:24.544Z,101389.83
2018-09-10T05:52:55.082Z,101407.33
2018-09-10T05:55:25.325Z,101398.36
2018-09-10T05:57:55.075Z,101403.73
2018-09-10T06:00:24.958Z,101407.24
2018-09-10T06:02:54.995Z,101408.58
2018-09-10T06:05:24.759Z,101412.24
2018-09-10T06:07:54.658Z,101411.89
2018-09-10T06:10:24.217Z,101415.38
2018-09-10T06:12:53.842Z,101413.91
2018-09-10T06:15:23.994Z,101418.72
2018-09-10T06:17:53.818Z,101418.41
2018-09-10T06:21:11.340Z,101412.34
2018-09-10T06:23:52.064Z,101412.53
2018-09-10T06:26:21.905Z,101412.70
2018-09-10T06:28:52.126Z,101404.78
2018-09-10T06:31:21.936Z,101405.70
2018-09-10T06:33:52.073Z,101399.75
2018-09-10T06:36:21.770Z,101393.29
2018-09-10T06:38:51.926Z,101388.75
2018-09-10T06:41:22.033Z,101390.16
2018-09-10T06:43:51.832Z,101393.29
2018-09-10T06:46:21.589Z,101402.06
2018-09-10T06:48:51.698Z,101394.02
2018-09-10T06:51:21.970Z,101398.56
2018-09-10T06:53:52.142Z,101396.14
2018-09-10T06:56:21.834Z,101396.50
2018-09-10T06:58:51.853Z,101401.28
2018-09-10T07:01:22.096Z,101400.41
2018-09-10T07:03:52.480Z,101397.98
2018-09-10T07:06:22.694Z,101401.03
2018-09-10T07:08:52.546Z,101407.88
2018-09-10T07:11:22.048Z,101405.36
2018-09-10T07:13:51.484Z,101406.73
2018-09-10T07:16:21.589Z,101400.13
2018-09-10T07:18:51.197Z,101389.88
2018-09-10T07:21:21.020Z,101389.55
2018-09-10T07:23:51.000Z,101399.68
2018-09-10T07:26:21.162Z,101403.75
2018-09-10T07:28:50.653Z,101403.14
2018-09-10T07:31:20.572Z,101397.90
2018-09-10T07:33:50.161Z,101409.19
2018-09-10T07:36:20.373Z,101406.97
2018-09-10T07:38:50.661Z,101410.78
2018-09-10T07:41:20.513Z,101411.89
2018-09-10T07:43:50.469Z,101410.94
2018-09-10T07:46:20.433Z,101412.84
2018-09-10T07:48:50.358Z,101412.34
2018-09-10T07:51:20.358Z,101415.63
2018-09-10T07:53:50.080Z,101412.41
2018-09-10T07:56:20.933Z,101410.31
2018-09-10T07:58:51.016Z,101409.78
2018-09-10T08:01:20.761Z,101414.41
2018-09-10T08:03:50.999Z,101410.37
2018-09-10T08:06:20.571Z,101409.66
2018-09-10T08:08:50.587Z,101409.00
2018-09-10T08:11:20.632Z,101408.27
2018-09-10T08:13:51.437Z,101411.59
2018-09-10T08:16:21.547Z,101425.44
2018-09-10T08:18:51.194Z,101419.39
2018-09-10T08:21:20.723Z,101422.52
2018-09-10T08:23:50.372Z,101422.20
2018-09-10T08:26:20.155Z,101422.80
2018-09-10T08:28:50.004Z,101429.01
2018-09-10T08:31:19.676Z,101426.11
2018-09-10T08:33:49.799Z,101422.84
2018-09-10T08:36:19.866Z,101417.20
2018-09-10T08:38:49.782Z,101418.95
2018-09-10T08:41:19.777Z,101422.52
2018-09-10T08:43:49.318Z,101421.96
2018-09-10T08:46:19.289Z,101413.88
2018-09-10T08:48:49.609Z,101408.30
2018-09-10T08:51:19.232Z,101418.98
2018-09-10T08:53:49.184Z,101409.95
2018-09-10T08:56:19.150Z,101419.70
2018-09-10T08:58:48.910Z,101421.51
2018-09-10T09:01:18.372Z,101417.95
2018-09-10T09:03:48.338Z,101420.12
2018-09-10T09:06:18.456Z,101419.20
2018-09-10T09:08:47.878Z,101415.77
2018-09-10T09:11:17.800Z,101418.27
2018-09-10T09:13:47.786Z,101414.45
2018-09-10T09:16:17.641Z,101412.48
2018-09-10T09:18:47.974Z,101411.20
2018-09-10T09:21:18.044Z,101405.02
2018-09-10T09:23:48.100Z,101400.70
2018-09-10T09:26:17.720Z,101397.13
2018-09-10T09:28:48.292Z,101398.11
2018-09-10T09:31:18.252Z,101398.20
2018-09-10T09:33:48.646Z,101392.71
2018-09-10T09:36:24.017Z,101392.50
2018-09-10T09:38:59.059Z,101394.10
2018-09-10T09:41:34.195Z,101389.96
2018-09-10T09:44:09.420Z,101388.97
2018-09-10T09:46:39.468Z,101390.45
2018-09-10T09:49:09.115Z,101381.38
2018-09-10T09:51:39.057Z,101379.75
2018-09-10T09:54:08.727Z,101374.61
2018-09-10T09:56:38.385Z,101365.25
2018-09-10T09:59:08.088Z,101359.42
2018-09-10T10:02:00.595Z,101364.30
2018-09-10T10:04:30.419Z,101358.98
2018-09-10T10:07:03.162Z,101357.92
2018-09-10T10:09:33.871Z,101359.76
2018-09-10T10:12:03.486Z,101354.43
2018-09-10T10:14:33.239Z,101342.36
2018-09-10T10:17:02.971Z,101338.69
2018-09-10T10:19:32.743Z,101336.27
2018-09-10T10:22:02.611Z,101322.23
2018-09-10T10:24:32.331Z,101319.09
2018-09-10T10:27:02.111Z,101316.30
2018-09-10T10:29:31.904Z,101317.48
2018-09-10T10:32:01.291Z,101303.09
2018-09-10T10:34:31.193Z,101309.53
2018-09-10T10:37:00.957Z,101304.29
2018-09-10T10:39:31.216Z,101302.09
2018-09-10T10:42:01.023Z,101300.11
2018-09-10T10:44:31.382Z,101297.48
2018-09-10T10:47:00.919Z,101287.36
2018-09-10T10:49:30.401Z,101291.67
2018-09-10T10:52:00.155Z,101293.00
2018-09-10T10:54:30.320Z,101293.49
2018-09-10T10:57:01.247Z,101296.62
2018-09-10T10:59:31.251Z,101296.84
2018-09-10T11:02:01.100Z,101289.94
2018-09-10T11:04:31.589Z,101294.60
2018-09-10T11:07:02.355Z,101294.88
2018-09-10T11:09:32.147Z,101291.52
2018-09-10T11:12:02.353Z,101291.30
2018-09-10T11:14:32.351Z,101289.50
2018-09-10T11:17:02.289Z,101286.97
2018-09-10T11:19:32.177Z,101285.28
2018-09-10T11:22:02.055Z,101286.71
2018-09-10T11:24:31.807Z,101289.73
2018-09-10T11:27:01.588Z,101280.42
2018-09-10T11:29:30.979Z,101286.36
2018-09-10T11:32:00.719Z,101286.52
2018-09-10T11:34:30.184Z,101272.91
2018-09-10T11:36:59.841Z,101272.23
2018-09-10T11:39:29.590Z,101267.37
2018-09-10T11:41:59.319Z,101271.77
2018-09-10T11:44:28.707Z,101271.57
2018-09-10T11:46:58.545Z,101280.84
2018-09-10T11:49:28.276Z,101272.91
2018-09-10T11:51:57.762Z,101270.56
2018-09-10T11:54:27.531Z,101271.03
2018-09-10T11:56:57.259Z,101275.41
2018-09-10T11:59:26.891Z,101268.72
2018-09-10T12:01:56.668Z,101268.47
2018-09-10T12:04:26.098Z,101266.88
2018-09-10T12:06:57.934Z,101264.85
2018-09-10T12:09:27.348Z,101268.48
2018-09-10T12:11:57.114Z,101258.58
2018-09-10T12:14:26.448Z,101256.61
2018-09-10T12:16:56.210Z,101251.13
2018-09-10T12:19:27.090Z,101246.91
2018-09-10T12:21:56.554Z,101244.90
2018-09-10T12:24:26.265Z,101248.50
2018-09-10T12:26:55.734Z,101249.16
2018-09-10T12:29:25.771Z,101251.47
2018-09-10T12:31:55.534Z,101257.64
2018-09-10T12:34:25.353Z,101254.92
2018-09-10T12:37:17.401Z,101259.66
2018-09-10T12:39:47.259Z,101255.59
2018-09-10T12:42:16.989Z,101252.02
2018-09-10T12:44:46.712Z,101254.63
2018-09-10T12:47:16.636Z,101254.73
2018-09-10T12:49:46.838Z,101250.66
2018-09-10T12:52:16.942Z,101258.77
2018-09-10T12:54:46.533Z,101256.45
2018-09-10T12:57:15.977Z,101254.34
2018-09-10T12:59:45.762Z,101248.02
2018-09-10T13:02:15.572Z,101243.98
2018-09-10T13:04:45.417Z,101241.32
2018-09-10T13:07:15.126Z,101241.74
2018-09-10T13:09:44.565Z,101239.14
2018-09-10T13:12:14.266Z,101234.77
2018-09-10T13:14:45.407Z,101238.20
2018-09-10T13:17:15.163Z,101227.95
2018-09-10T13:19:44.569Z,101236.47
2018-09-10T13:22:14.355Z,101235.38
2018-09-10T13:24:44.134Z,101234.17
2018-09-10T13:27:13.854Z,101227.05
2018-09-10T13:29:43.807Z,101233.48
2018-09-10T13:32:13.516Z,101236.70
2018-09-10T13:34:43.286Z,101232.11
2018-09-10T13:37:12.713Z,101234.05
2018-09-10T13:39:42.558Z,101232.48
2018-09-10T13:42:11.973Z,101226.34
2018-09-10T13:44:41.758Z,101231.76
2018-09-10T13:47:11.489Z,101228.17
2018-09-10T13:49:41.289Z,101223.86
2018-09-10T13:52:10.747Z,101219.27
2018-09-10T13:54:40.279Z,101215.45
2018-09-10T13:59:55.207Z,101220.27
2018-09-10T14:02:25.034Z,101222.48
2018-09-10T14:04:54.605Z,101215.28
2018-09-10T14:07:25.533Z,101203.56
2018-09-10T14:09:55.653Z,101209.68
2018-09-10T14:12:25.540Z,101208.48
2018-09-10T14:14:55.285Z,101215.86
2018-09-10T14:17:25.073Z,101215.11
2018-09-10T14:19:55.086Z,101218.59
2018-09-10T14:22:24.553Z,101215.59
2018-09-10T14:24:54.310Z,101216.78
2018-09-10T14:27:24.199Z,101215.50
2018-09-10T14:29:53.957Z,101222.50
2018-09-10T14:32:23.778Z,101222.14
2018-09-10T14:34:53.626Z,101227.29
2018-09-10T14:37:23.497Z,101224.27
2018-09-10T14:39:53.477Z,101225.91
2018-09-10T14:42:23.121Z,101226.10
2018-09-10T14:44:52.889Z,101227.17
2018-09-10T14:47:22.334Z,101231.13
2018-09-10T14:49:52.228Z,101227.75
2018-09-10T14:52:21.625Z,101232.58
2018-09-10T14:54:51.409Z,101229.72
2018-09-10T14:57:22.513Z,101232.05
2018-09-10T14:59:52.382Z,101235.11
2018-09-10T15:02:27.662Z,101230.14
2018-09-10T15:04:57.519Z,101233.48
2018-09-10T15:07:27.369Z,101234.44
2018-09-10T15:09:57.273Z,101242.84
2018-09-10T15:12:27.149Z,101237.41
2018-09-10T15:14:57.003Z,101244.08
2018-09-10T15:17:26.554Z,101242.30
2018-09-10T15:19:56.129Z,101239.69
2018-09-10T15:22:25.809Z,101244.73
2018-09-10T15:24:55.353Z,101238.88
2018-09-10T15:27:24.877Z,101243.80
2018-09-10T15:29:54.662Z,101240.38
2018-09-10T15:32:24.658Z,101238.76
2018-09-10T15:34:54.694Z,101236.64
2018-09-10T15:37:24.564Z,101235.05
2018-09-10T15:39:54.025Z,101232.42
2018-09-10T15:42:24.247Z,101233.62
2018-09-10T15:44:54.879Z,101230.02
2018-09-10T15:47:24.894Z,101226.16
2018-09-10T15:49:54.784Z,101227.39
2018-09-10T15:52:24.701Z,101225.36
2018-09-10T15:54:55.359Z,101215.11
2018-09-10T15:57:24.975Z,101215.11
2018-09-10T15:59:54.963Z,101219.47
2018-09-10T16:02:24.846Z,101221.39
2018-09-10T16:04:54.710Z,101219.48
2018-09-10T16:07:25.046Z,101226.78
2018-09-10T16:09:54.788Z,101229.29
2018-09-10T16:12:24.732Z,101230.67
2018-09-10T16:14:54.686Z,101231.48
2018-09-10T16:17:24.985Z,101234.31
2018-09-10T16:19:54.829Z,101229.13
2018-09-10T16:22:24.293Z,101235.66
2018-09-10T16:24:53.833Z,101234.06
2018-09-10T16:27:23.581Z,101241.46
2018-09-10T16:29:53.513Z,101232.23
2018-09-10T16:32:23.325Z,101236.36
2018-09-10T16:34:52.918Z,101240.84
2018-09-10T16:37:23.029Z,101236.63
2018-09-10T16:39:52.553Z,101236.06
2018-09-10T16:42:22.100Z,101230.97
2018-09-10T16:44:51.537Z,101231.08
2018-09-10T16:47:21.482Z,101235.55
2018-09-10T16:49:53.472Z,101233.91
2018-09-10T16:52:23.505Z,101231.53
2018-09-10T16:54:53.229Z,101225.03
2018-09-10T16:57:22.872Z,101231.70
2018-09-10T16:59:54.137Z,101236.98
2018-09-10T17:02:23.973Z,101180.27
2018-09-10T17:04:54.544Z,101229.45
2018-09-10T17:07:26.585Z,101237.55
2018-09-10T17:09:57.174Z,101239.30
2018-09-10T17:12:28.698Z,101240.64
2018-09-10T17:14:59.005Z,101239.77
2018-09-10T17:17:29.370Z,101241.47
2018-09-10T17:19:59.189Z,101238.80
2018-09-10T17:22:29.341Z,101242.12
2018-09-10T17:24:59.192Z,101254.35
2018-09-10T17:27:29.432Z,101247.27
2018-09-10T17:29:59.593Z,101250.52
2018-09-10T17:32:29.660Z,101253.38
2018-09-10T17:34:59.366Z,101253.40
2018-09-10T17:37:29.154Z,101256.02
2018-09-10T17:39:59.014Z,101242.28
2018-09-10T17:42:30.037Z,101235.61
2018-09-10T17:44:59.542Z,101227.73
2018-09-10T17:47:29.354Z,101232.78
2018-09-10T17:49:59.272Z,101239.18
2018-09-10T17:52:30.316Z,101240.27
2018-09-10T17:55:01.378Z,101239.36
2018-09-10T17:57:31.405Z,101240.07
2018-09-10T18:00:01.719Z,101243.44
2018-09-10T18:02:31.583Z,101239.84
2018-09-10T18:05:01.219Z,101240.60
2018-09-10T18:07:37.646Z,101238.86
2018-09-10T18:10:08.433Z,101239.33
2018-09-10T18:12:38.292Z,101236.94
2018-09-10T18:15:08.424Z,101235.86
2018-09-10T18:17:39.197Z,101240.61
2018-09-10T18:20:09.306Z,101242.14
2018-09-10T18:22:38.799Z,101243.20
2018-09-10T18:25:08.450Z,101251.38
2018-09-10T18:27:38.333Z,101240.08
2018-09-10T18:30:07.934Z,101248.66
2018-09-10T18:32:37.814Z,101251.09
2018-09-10T18:35:08.914Z,101247.00
2018-09-10T18:37:38.709Z,101251.81
2018-09-10T18:40:09.431Z,101256.03
2018-09-10T18:42:39.146Z,101257.13
2018-09-10T18:45:09.568Z,101254.77
2018-09-10T18:47:39.355Z,101258.55
2018-09-10T18:50:09.517Z,101251.21
2018-09-10T18:52:39.596Z,101253.75
2018-09-10T18:55:09.468Z,101256.20
2018-09-10T18:57:40.845Z,101244.71
2018-09-10T19:00:11.436Z,101252.08
2018-09-10T19:02:41.404Z,101247.17
2018-09-10T19:05:11.396Z,101260.36
2018-09-10T19:07:41.364Z,101252.41
2018-09-10T19:10:13.335Z,101250.48
2018-09-10T19:12:43.196Z,101253.50
2018-09-10T19:15:15.281Z,101247.72
2018-09-10T19:17:46.037Z,101242.89
2018-09-10T19:20:16.486Z,101239.33
2018-09-10T19:22:46.388Z,101239.64
2018-09-10T19:25:16.863Z,101245.97
2018-09-10T19:27:51.284Z,101246.44
2018-09-10T19:30:22.948Z,101242.41
2018-09-10T19:32:53.707Z,101250.40
2018-09-10T19:35:23.521Z,101238.30
2018-09-10T19:37:54.848Z,101237.03
2018-09-10T19:40:25.248Z,101242.66
2018-09-10T19:42:55.052Z,101244.54
2018-09-10T19:45:26.231Z,101243.30
2018-09-10T19:47:56.791Z,101244.02
2018-09-10T19:50:27.080Z,101236.44
2018-09-10T19:52:58.193Z,101240.47
2018-09-10T19:55:28.264Z,101245.52
2018-09-10T19:57:58.324Z,101246.42
2018-09-10T20:00:28.307Z,101251.80
2018-09-10T20:02:57.872Z,101254.05
2018-09-10T20:05:27.452Z,101246.87
2018-09-10T20:07:57.457Z,101245.30
2018-09-10T20:10:27.422Z,101248.13
2018-09-10T20:12:56.927Z,101247.90
2018-09-10T20:15:26.445Z,101248.84
2018-09-10T20:17:55.899Z,101251.53
2018-09-10T20:20:25.835Z,101246.63
2018-09-10T20:22:55.886Z,101241.06
2018-09-10T20:25:25.448Z,101235.59
2018-09-10T20:27:55.239Z,101239.12
2018-09-10T20:30:24.723Z,101242.05
2018-09-10T20:32:54.535Z,101240.98
2018-09-10T20:35:24.300Z,101240.89
2018-09-10T20:37:55.136Z,101247.03
2018-09-10T20:40:24.507Z,101262.78
2018-09-10T20:42:54.526Z,101276.88
2018-09-10T20:45:24.395Z,101272.87
2018-09-10T20:47:55.671Z,101262.22
2018-09-10T20:50:25.711Z,101257.69
2018-09-10T20:52:55.623Z,101258.92
2018-09-10T20:55:25.545Z,101250.46
2018-09-10T20:57:55.403Z,101247.86
2018-09-10T21:00:24.934Z,101249.24
2018-09-10T21:02:54.333Z,101254.05
2018-09-10T21:05:23.763Z,101252.27
2018-09-10T21:07:54.136Z,101250.48
2018-09-10T21:10:23.582Z,101252.10
2018-09-10T21:12:53.438Z,101248.67
2018-09-10T21:15:23.233Z,101239.67
2018-09-10T21:17:53.313Z,101237.56
2018-09-10T21:20:23.144Z,101232.93
2018-09-10T21:22:52.906Z,101239.91
2018-09-10T21:25:22.678Z,101237.90
2018-09-10T21:27:52.474Z,101238.33
2018-09-10T21:30:21.978Z,101230.01
2018-09-10T21:32:51.746Z,101240.20
2018-09-10T21:35:21.590Z,101233.77
2018-09-10T21:37:51.348Z,101231.45
2018-09-10T21:40:21.314Z,101240.78
2018-09-10T21:42:57.274Z,101243.16
2018-09-10T21:45:27.151Z,101236.59
2018-09-10T21:47:57.003Z,101243.06
2018-09-10T21:50:27.142Z,101238.46
2018-09-10T21:52:57.630Z,101242.22
2018-09-10T21:55:27.658Z,101235.99
2018-09-10T21:57:57.454Z,101239.48
2018-09-10T22:00:27.499Z,101237.67
2018-09-10T22:02:57.330Z,101237.73
2018-09-10T22:05:27.143Z,101236.39
2018-09-10T22:07:57.004Z,101240.13
2018-09-10T22:10:26.491Z,101245.67
2018-09-10T22:12:56.309Z,101251.14
2018-09-10T22:15:25.750Z,101247.18
2018-09-10T22:17:55.688Z,101243.63
2018-09-10T22:20:25.134Z,101247.53
2018-09-10T22:22:54.502Z,101249.60
2018-09-10T22:25:24.415Z,101245.00
2018-09-10T22:27:54.234Z,101243.47
2018-09-10T22:30:24.000Z,101246.22
2018-09-10T22:32:53.784Z,101252.34
2018-09-10T22:35:23.697Z,101246.41
2018-09-10T22:37:53.546Z,101258.36
2018-09-10T22:40:23.338Z,101266.21
2018-09-10T22:42:53.085Z,101264.13
2018-09-10T22:45:22.481Z,101274.98
2018-09-10T22:47:51.895Z,101284.59
2018-09-10T22:50:21.730Z,101283.84
2018-09-10T22:52:51.534Z,101277.07
2018-09-10T22:55:21.984Z,101280.09
2018-09-10T22:57:51.444Z,101275.72
2018-09-10T23:00:21.442Z,101284.17
2018-09-10T23:02:51.035Z,101282.30
2018-09-10T23:05:20.824Z,101287.27
2018-09-10T23:07:50.557Z,101283.05
2018-09-10T23:10:20.322Z,101287.14
2018-09-10T23:12:49.719Z,101284.45
2018-09-10T23:15:19.459Z,101287.73
2018-09-10T23:17:49.338Z,101290.70
2018-09-10T23:20:19.059Z,101292.92
2018-09-10T23:22:48.851Z,101298.52
2018-09-10T23:25:18.622Z,101293.84
2018-09-10T23:27:48.005Z,101298.20
2018-09-10T23:30:17.773Z,101300.41
2018-09-10T23:32:47.446Z,101302.63
2018-09-10T23:35:17.140Z,101305.44
2018-09-10T23:37:46.898Z,101310.41
2018-09-10T23:40:16.622Z,101313.26
2018-09-10T23:42:45.998Z,101303.35
2018-09-10T23:45:15.720Z,101312.95
2018-09-10T23:47:45.471Z,101315.75
2018-09-10T23:50:15.183Z,101313.53
2018-09-10T23:52:44.917Z,101312.46
2018-09-10T23:55:14.331Z,101310.91
2018-09-10T23:57:44.129Z,101310.25
